Time;durP1;ratioP1;P1;durP2;ratioP2;P2;SDS_P1;SDS_P2;PMS_P1;PMS_P2;Temp;Humidity;BMP_temperature;BMP_pressure;BME280_temperature;BME280_humidity;BME280_pressure;Samples;Min_cycle;Max_cycle;Signal;HPM_P1;HPM_P2
2023/06/21 00:00:47;;;;;;;8.60;7.80;;;;;;;24.00;79.12;98480.38;5003502;27;103995;-74
2023/06/21 00:03:15;;;;;;;7.13;6.53;;;;;;;24.21;76.55;98488.38;5029571;27;103220;-75
2023/06/21 00:05:43;;;;;;;8.80;8.00;;;;;;;24.29;76.38;98480.09;5027118;27;103012;-73
2023/06/21 00:08:12;;;;;;;10.00;9.10;;;;;;;23.90;78.79;98479.91;5023384;27;102864;-73
2023/06/21 00:10:40;;;;;;;12.02;10.98;;;;;;;23.42;81.47;98465.53;5003074;27;104312;-73
2023/06/21 00:13:08;;;;;;;12.50;11.20;;;;;;;23.07;82.76;98470.03;5014267;27;105111;-75
2023/06/21 00:15:37;;;;;;;12.43;11.20;;;;;;;22.80;83.39;98463.56;5027539;27;102946;-74
2023/06/21 00:18:04;;;;;;;12.90;11.70;;;;;;;22.78;84.50;98462.09;5028590;27;103995;-74
2023/06/21 00:20:33;;;;;;;9.55;8.75;;;;;;;23.36;80.31;98459.03;5024975;27;103348;-74
2023/06/21 00:23:00;;;;;;;10.52;8.95;;;;;;;23.56;78.98;98456.50;5020573;27;103438;-74
2023/06/21 00:25:29;;;;;;;13.50;12.02;;;;;;;22.43;85.83;98459.25;5035844;27;102646;-74
2023/06/21 00:27:57;;;;;;;11.43;10.30;;;;;;;22.59;86.41;98452.81;5012789;27;104091;-74
2023/06/21 00:30:25;;;;;;;6.97;6.38;;;;;;;23.24;82.11;98455.25;5002369;27;104161;-74
2023/06/21 00:32:54;;;;;;;9.05;8.25;;;;;;;23.55;78.74;98455.66;5001040;27;103991;-74
2023/06/21 00:35:22;;;;;;;12.75;10.25;;;;;;;23.42;79.74;98469.06;5004283;27;102647;-74
2023/06/21 00:37:49;;;;;;;8.60;7.80;;;;;;;23.45;80.00;98468.66;5031347;27;103964;-76
2023/06/21 00:40:22;;;;;;;7.13;6.43;;;;;;;23.67;78.62;98478.34;4999332;27;105065;-74
2023/06/21 00:42:51;;;;;;;9.80;8.87;;;;;;;23.67;77.73;98477.50;5006980;27;103259;-74
2023/06/21 00:45:19;;;;;;;8.88;7.90;;;;;;;23.77;77.20;98479.84;5000752;27;102759;-74
2023/06/21 00:47:47;;;;;;;11.23;10.15;;;;;;;23.45;79.49;98471.38;5007813;27;103697;-74
2023/06/21 00:50:16;;;;;;;13.83;11.83;;;;;;;22.66;85.11;98471.72;5011819;27;103941;-74
2023/06/21 00:52:44;;;;;;;11.73;10.63;;;;;;;22.82;85.80;98474.19;5008050;27;104224;-74
2023/06/21 00:55:13;;;;;;;8.88;8.18;;;;;;;23.13;83.60;98482.69;5002937;28;102741;-74
2023/06/21 00:57:44;;;;;;;8.82;8.02;;;;;;;23.40;80.73;98481.91;5002642;27;104269;-74
2023/06/21 01:00:17;;;;;;;8.63;7.90;;;;;;;23.49;79.80;98482.59;5019798;27;103233;-74
2023/06/21 01:02:46;;;;;;;9.30;8.50;;;;;;;23.51;79.63;98478.66;5005912;28;104418;-74
2023/06/21 01:05:16;;;;;;;12.60;11.32;;;;;;;23.18;81.28;98482.13;5029030;27;102672;-74
2023/06/21 01:08:00;;;;;;;12.80;11.50;;;;;;;22.78;84.21;98489.88;5005847;27;102977;-76
2023/06/21 01:10:44;;;;;;;10.30;9.23;;;;;;;23.13;82.13;98488.09;5016982;27;103371;-76
2023/06/21 01:13:24;;;;;;;11.48;10.38;;;;;;;23.18;80.98;98495.59;5003708;27;104290;-76
2023/06/21 01:16:02;;;;;;;13.23;11.82;;;;;;;22.86;82.55;98502.38;5006963;27;102968;-77
2023/06/21 01:18:34;;;;;;;11.75;10.60;;;;;;;22.89;82.36;98488.50;5035163;27;104025;-76
2023/06/21 01:21:04;;;;;;;10.52;9.70;;;;;;;23.01;81.20;98493.19;5000755;27;104230;-76
2023/06/21 01:24:09;;;;;;;10.10;9.20;;;;;;;23.22;79.17;98502.25;5020686;27;103201;-77
2023/06/21 01:27:06;;;;;;;9.37;8.50;;;;;;;23.31;78.57;98503.78;5003635;27;102920;-77
2023/06/21 01:29:39;;;;;;;9.77;8.98;;;;;;;23.45;78.13;98509.09;5019740;27;103571;-76
2023/06/21 01:32:13;;;;;;;9.93;8.93;;;;;;;23.42;77.52;98514.88;5003450;27;104276;-77
2023/06/21 01:34:41;;;;;;;7.60;6.90;;;;;;;23.51;76.82;98507.50;5006839;27;103202;-77
2023/06/21 01:37:09;;;;;;;9.13;8.35;;;;;;;23.49;76.80;98513.09;5002539;28;102761;-77
2023/06/21 01:39:37;;;;;;;9.70;8.70;;;;;;;23.32;77.88;98514.38;5008720;27;103766;-77
2023/06/21 01:42:06;;;;;;;8.68;7.88;;;;;;;23.33;77.63;98510.63;4993052;28;105965;-77
2023/06/21 01:44:36;;;;;;;8.25;7.55;;;;;;;23.38;76.85;98512.78;5001427;27;104376;-76
2023/06/21 01:47:05;;;;;;;8.52;7.82;;;;;;;23.35;76.19;98514.00;5004708;27;103060;-76
2023/06/21 01:49:34;;;;;;;9.55;8.70;;;;;;;23.22;77.82;98518.41;5005307;28;102780;-77
2023/06/21 01:52:05;;;;;;;8.57;7.85;;;;;;;23.24;76.61;98517.22;5028530;27;103955;-77
2023/06/21 01:54:34;;;;;;;9.57;8.68;;;;;;;23.05;78.10;98524.09;5005593;28;103216;-76
2023/06/21 01:57:07;;;;;;;8.38;7.68;;;;;;;23.13;78.06;98535.78;5011533;27;102882;-77
2023/06/21 01:59:36;;;;;;;7.63;7.03;;;;;;;23.22;77.01;98540.81;5006327;28;103030;-76
2023/06/21 02:02:06;;;;;;;7.47;6.60;;;;;;;23.26;76.62;98547.50;5009044;27;104311;-77
2023/06/21 02:04:35;;;;;;;7.60;7.00;;;;;;;23.21;76.74;98549.94;5015866;28;104083;-77
2023/06/21 02:07:04;;;;;;;9.05;8.25;;;;;;;23.23;76.04;98547.03;5022714;27;102968;-77
2023/06/21 02:09:33;;;;;;;9.13;8.32;;;;;;;23.20;75.85;98552.81;5013318;27;104176;-76
2023/06/21 02:12:01;;;;;;;6.35;5.90;;;;;;;23.25;75.74;98553.91;5005801;27;105113;-77
2023/06/21 02:14:32;;;;;;;8.60;7.78;;;;;;;23.21;74.98;98555.34;5020980;27;103174;-77
2023/06/21 02:17:03;;;;;;;7.80;7.10;;;;;;;23.21;76.23;98567.97;5010723;27;102846;-76
2023/06/21 02:19:31;;;;;;;9.17;8.37;;;;;;;23.09;77.40;98575.75;5003271;28;104222;-77
2023/06/21 02:21:59;;;;;;;8.57;7.80;;;;;;;23.14;76.16;98565.22;5004538;27;103665;-76
2023/06/21 02:24:27;;;;;;;8.33;7.63;;;;;;;23.16;75.77;98571.22;5000564;28;103258;-78
2023/06/21 02:26:55;;;;;;;11.15;9.57;;;;;;;22.42;80.22;98578.72;5006624;27;104904;-77
2023/06/21 02:29:23;;;;;;;9.80;8.80;;;;;;;22.49;79.64;98571.53;5016802;27;104865;-76
2023/06/21 02:31:51;;;;;;;10.82;9.82;;;;;;;22.03;81.99;98570.13;5005293;27;104126;-77
2023/06/21 02:34:20;;;;;;;10.85;9.85;;;;;;;21.89;83.00;98561.03;5008864;27;103227;-76
2023/06/21 02:36:53;;;;;;;11.15;9.20;;;;;;;21.98;82.82;98564.47;5001135;27;103033;-76
2023/06/21 02:39:22;;;;;;;12.40;10.23;;;;;;;21.59;84.65;98571.91;5021302;27;102940;-76
2023/06/21 02:41:50;;;;;;;12.23;10.93;;;;;;;21.46;86.44;98571.72;5008567;27;103257;-76
2023/06/21 02:44:18;;;;;;;11.57;10.57;;;;;;;21.55;85.67;98570.63;5010476;27;104229;-77
2023/06/21 02:46:46;;;;;;;11.50;10.50;;;;;;;21.75;84.78;98566.38;5016806;27;103105;-77
2023/06/21 02:49:14;;;;;;;12.27;11.00;;;;;;;21.68;85.84;98558.22;5006034;27;104181;-76
2023/06/21 02:51:45;;;;;;;12.80;11.40;;;;;;;21.22;88.36;98573.59;5017842;27;103266;-76
2023/06/21 02:54:15;;;;;;;11.40;10.30;;;;;;;21.51;87.32;98569.31;5006078;27;103282;-76
2023/06/21 02:56:43;;;;;;;11.10;9.93;;;;;;;21.85;84.12;98572.31;5000320;27;104237;-76
2023/06/21 02:59:12;;;;;;;11.75;10.55;;;;;;;21.49;85.25;98574.88;5009802;27;104642;-79
2023/06/21 03:01:39;;;;;;;9.25;8.45;;;;;;;21.89;83.49;98581.72;5024479;27;103541;-79
2023/06/21 03:04:07;;;;;;;9.05;8.30;;;;;;;22.14;81.67;98590.34;5014158;27;102722;-79
2023/06/21 03:06:35;;;;;;;7.90;7.23;;;;;;;22.31;79.87;98594.50;5007476;27;102841;-79
2023/06/21 03:09:05;;;;;;;10.45;9.32;;;;;;;22.12;80.79;98598.59;5022352;27;104214;-79
2023/06/21 03:11:33;;;;;;;10.15;9.25;;;;;;;21.97;82.70;98603.16;4998541;27;103014;-79
2023/06/21 03:14:01;;;;;;;9.13;8.33;;;;;;;22.07;82.76;98597.47;5006185;27;103982;-78
2023/06/21 03:16:30;;;;;;;10.55;9.27;;;;;;;21.98;83.22;98599.41;5012304;27;102759;-78
2023/06/21 03:18:58;;;;;;;7.80;7.10;;;;;;;22.27;81.85;98603.97;5036959;27;104123;-77
2023/06/21 03:21:28;;;;;;;12.00;9.83;;;;;;;22.19;81.46;98612.97;5001644;27;103311;-77
2023/06/21 03:23:56;;;;;;;8.02;7.32;;;;;;;22.35;81.17;98618.16;5001209;28;102980;-78
2023/06/21 03:26:25;;;;;;;6.18;5.70;;;;;;;22.54;79.35;98631.03;5028271;27;102561;-77
2023/06/21 03:28:57;;;;;;;9.13;8.32;;;;;;;22.53;79.93;98636.63;5007588;27;103049;-77
2023/06/21 03:31:25;;;;;;;9.32;8.43;;;;;;;22.51;80.64;98644.84;5006713;27;104341;-78
2023/06/21 03:33:53;;;;;;;8.90;8.10;;;;;;;22.47;81.44;98648.13;5002349;27;104878;-76
2023/06/21 03:36:22;;;;;;;8.45;7.65;;;;;;;22.58;80.74;98654.88;5011196;27;102635;-76
2023/06/21 03:38:50;;;;;;;10.80;9.80;;;;;;;22.24;82.67;98658.16;5000999;28;102705;-76
2023/06/21 03:41:18;;;;;;;8.85;8.05;;;;;;;22.47;82.07;98664.28;5008840;27;104202;-77
2023/06/21 03:43:47;;;;;;;6.43;5.93;;;;;;;22.72;79.42;98686.38;5009871;27;103169;-76
2023/06/21 03:46:15;;;;;;;10.40;9.38;;;;;;;22.77;79.35;98745.88;5006492;28;102773;-77
2023/06/21 03:48:43;;;;;;;11.20;10.20;;;;;;;22.82;79.55;98800.03;5013650;27;103950;-78
2023/06/21 03:51:11;;;;;;;11.95;10.75;;;;;;;22.49;82.61;98788.75;5007757;28;104265;-78
2023/06/21 03:53:40;;;;;;;14.68;10.77;;;;;;;21.77;86.33;98806.34;5016119;27;103406;-74
2023/06/21 03:56:09;;;;;;;14.55;10.73;;;;;;;21.64;86.86;98800.72;5018633;27;102647;-78
2023/06/21 03:58:37;;;;;;;10.83;8.83;;;;;;;21.97;85.85;98775.28;5006433;27;102910;-79
2023/06/21 04:01:06;;;;;;;9.63;8.70;;;;;;;22.09;84.56;98765.75;5001372;27;103269;-75
2023/06/21 04:03:34;;;;;;;11.13;9.02;;;;;;;21.98;84.88;98752.72;5005358;27;104344;-76
2023/06/21 04:06:03;;;;;;;11.10;9.93;;;;;;;21.76;87.57;98745.50;5002386;27;102990;-75
2023/06/21 04:08:32;;;;;;;9.10;8.23;;;;;;;21.87;86.71;98734.34;5020373;27;103511;-76
2023/06/21 04:11:00;;;;;;;8.93;8.00;;;;;;;21.99;86.07;98732.91;5007008;27;103789;-78
2023/06/21 04:13:28;;;;;;;11.88;9.30;;;;;;;21.23;90.59;98720.34;5024726;27;103228;-77
2023/06/21 04:15:56;;;;;;;12.27;9.83;;;;;;;21.50;89.76;98716.28;5001170;28;102850;-77
2023/06/21 04:18:25;;;;;;;7.00;6.40;;;;;;;22.04;86.32;98722.41;5006078;28;102926;-79
2023/06/21 04:20:53;;;;;;;10.30;7.70;;;;;;;22.25;84.90;98709.09;5012055;27;103271;-78
2023/06/21 04:23:21;;;;;;;7.63;6.90;;;;;;;22.33;85.89;98706.31;5010887;27;103783;-79
2023/06/21 04:25:50;;;;;;;11.32;8.70;;;;;;;22.09;86.23;98701.19;5005488;27;102555;-78
2023/06/21 04:28:24;;;;;;;9.80;7.90;;;;;;;22.29;86.20;98715.78;5003099;27;103598;-78
2023/06/21 04:30:54;;;;;;;5.97;5.38;;;;;;;22.54;84.20;98701.03;5004815;28;105360;-78
2023/06/21 04:33:23;;;;;;;6.60;6.00;;;;;;;22.68;83.93;98704.75;5011454;27;103228;-78
2023/06/21 04:35:52;;;;;;;8.20;7.00;;;;;;;22.82;82.69;98716.56;5009602;27;102999;-77
2023/06/21 04:38:20;;;;;;;5.40;4.97;;;;;;;22.91;81.54;98715.41;5027519;27;104053;-77
2023/06/21 04:40:48;;;;;;;6.75;6.15;;;;;;;23.00;81.15;98708.88;5004581;27;104076;-77
2023/06/21 04:43:15;;;;;;;5.55;5.15;;;;;;;23.10;81.46;98714.81;5002210;27;103456;-78
2023/06/21 04:45:48;;;;;;;9.07;8.20;;;;;;;23.01;81.65;98715.97;5017347;27;102848;-80
2023/06/21 04:48:16;;;;;;;7.43;6.70;;;;;;;23.09;81.43;98711.28;5029472;27;102594;-79
2023/06/21 04:50:45;;;;;;;9.68;8.68;;;;;;;22.77;83.86;98702.78;5001533;28;104014;-79
2023/06/21 04:53:14;;;;;;;6.60;6.00;;;;;;;22.99;82.26;98720.69;5025455;27;103406;-79
2023/06/21 04:55:42;;;;;;;10.13;9.13;;;;;;;22.72;83.91;98726.75;5027917;27;102946;-79
2023/06/21 04:58:12;;;;;;;8.18;7.47;;;;;;;22.72;85.77;98737.53;5016417;27;104478;-78
2023/06/21 05:00:40;;;;;;;7.70;7.00;;;;;;;23.05;83.69;98730.69;5002815;27;103296;-79
2023/06/21 05:03:08;;;;;;;8.10;7.40;;;;;;;23.03;83.34;98735.44;5000804;27;103213;-79
2023/06/21 05:05:36;;;;;;;7.22;6.53;;;;;;;23.26;82.54;98740.69;5011880;27;102706;-80
2023/06/21 05:08:06;;;;;;;7.73;7.03;;;;;;;23.42;82.24;98733.25;5019456;27;104081;-79
2023/06/21 05:10:35;;;;;;;8.40;7.63;;;;;;;23.52;82.26;98747.22;5022035;27;103303;-80
2023/06/21 05:13:03;;;;;;;9.38;8.38;;;;;;;23.51;83.00;98750.97;5022446;27;103349;-80
2023/06/21 05:15:31;;;;;;;9.52;8.43;;;;;;;23.40;83.87;98753.34;5022002;27;102598;-79
2023/06/21 05:17:59;;;;;;;9.23;8.38;;;;;;;23.46;83.15;98742.63;5022171;27;103979;-75
2023/06/21 05:20:29;;;;;;;8.30;7.57;;;;;;;23.52;83.05;98751.81;4998166;27;103697;-81
2023/06/21 05:22:59;;;;;;;6.03;5.53;;;;;;;23.65;81.97;98747.38;4994076;27;104151;-81
2023/06/21 05:25:30;;;;;;;8.00;7.20;;;;;;;23.69;80.70;98747.00;4998037;27;102726;-81
2023/06/21 05:27:59;;;;;;;9.57;8.60;;;;;;;23.51;81.63;98750.13;5008990;27;104163;-81
2023/06/21 05:30:27;;;;;;;7.77;7.00;;;;;;;23.60;79.50;98744.44;5021042;27;103293;-80
2023/06/21 05:32:55;;;;;;;7.10;6.50;;;;;;;23.74;80.02;98744.56;5002026;27;103422;-80
2023/06/21 05:35:23;;;;;;;7.22;6.53;;;;;;;23.86;79.61;98745.72;5042254;27;102810;-80
2023/06/21 05:37:53;;;;;;;7.90;7.20;;;;;;;23.97;79.63;98750.59;5009174;27;104489;-79
2023/06/21 05:40:22;;;;;;;6.28;5.70;;;;;;;24.04;79.55;98751.47;5004047;27;103074;-79
2023/06/21 05:42:49;;;;;;;9.45;8.65;;;;;;;23.95;79.79;98752.63;5008448;27;102704;-78
2023/06/21 05:45:22;;;;;;;7.88;7.18;;;;;;;23.95;79.12;98758.84;5030209;27;102631;-78
2023/06/21 05:47:50;;;;;;;8.25;7.45;;;;;;;24.07;79.25;98764.56;5006087;28;103900;-79
2023/06/21 05:50:18;;;;;;;6.20;5.70;;;;;;;24.19;78.26;98752.25;5003788;27;104308;-79
2023/06/21 05:52:46;;;;;;;8.90;8.10;;;;;;;24.17;78.32;98751.59;5003391;27;103652;-78
2023/06/21 05:55:17;;;;;;;7.72;7.03;;;;;;;24.15;78.42;98740.16;5004069;27;102946;-78
2023/06/21 05:57:45;;;;;;;6.53;5.97;;;;;;;24.33;78.10;98737.81;5026641;27;102563;-78
2023/06/21 06:00:14;;;;;;;5.83;5.37;;;;;;;24.43;77.66;98743.69;5017322;27;103272;-78
2023/06/21 06:02:43;;;;;;;7.28;6.57;;;;;;;24.50;76.95;98741.88;5021065;27;103257;-78
2023/06/21 06:05:11;;;;;;;8.80;7.90;;;;;;;24.08;79.14;98731.16;5022954;27;102696;-77
2023/06/21 06:07:39;;;;;;;7.18;6.57;;;;;;;24.31;79.25;98720.16;5012982;27;102815;-77
2023/06/21 06:10:08;;;;;;;9.90;8.93;;;;;;;23.78;82.54;98740.41;5025163;27;103353;-77
2023/06/21 06:12:35;;;;;;;12.07;9.27;;;;;;;23.85;80.55;98744.03;5006532;27;104057;-77
2023/06/21 06:15:04;;;;;;;9.38;8.48;;;;;;;23.96;81.27;98746.19;4998281;27;102932;-77
2023/06/21 06:17:32;;;;;;;10.85;8.93;;;;;;;22.88;82.04;98738.16;5021926;27;102947;-76
2023/06/21 06:20:05;;;;;;;6.30;5.70;;;;;;;23.80;78.16;98743.78;4994111;27;103999;-77
2023/06/21 06:22:49;;;;;;;8.93;7.63;;;;;;;24.21;80.17;98751.03;5031619;27;103281;-77
2023/06/21 06:25:19;;;;;;;6.75;6.15;;;;;;;24.58;77.44;98744.41;5025350;27;102541;-77
2023/06/21 06:27:47;;;;;;;8.05;7.32;;;;;;;24.50;77.51;98739.19;4996461;28;102889;-76
2023/06/21 06:30:15;;;;;;;8.13;7.15;;;;;;;24.53;77.55;98740.66;5028345;27;103558;-76
2023/06/21 06:32:43;;;;;;;9.15;8.13;;;;;;;24.43;77.18;98741.00;5019946;27;103209;-76
2023/06/21 06:35:12;;;;;;;8.43;7.63;;;;;;;24.67;76.13;98742.41;5006485;27;102750;-76
2023/06/21 06:37:40;;;;;;;9.43;8.57;;;;;;;24.71;74.87;98733.69;5010902;27;102882;-76
2023/06/21 06:40:08;;;;;;;6.20;5.75;;;;;;;25.05;75.96;98740.94;5004355;27;104365;-76
2023/06/21 06:42:36;;;;;;;10.82;9.73;;;;;;;24.43;77.46;98743.69;5022469;27;103477;-76
2023/06/21 06:45:09;;;;;;;9.35;8.32;;;;;;;24.50;77.61;98746.44;5019780;27;102707;-75
2023/06/21 06:47:37;;;;;;;10.68;9.27;;;;;;;24.89;75.31;98748.56;5009516;27;102844;-76
2023/06/21 06:50:07;;;;;;;10.47;9.40;;;;;;;24.99;74.84;98757.13;5028194;27;103335;-76
2023/06/21 06:52:36;;;;;;;10.82;9.73;;;;;;;24.82;76.38;98761.19;5000980;27;103199;-76
2023/06/21 06:55:05;;;;;;;10.15;8.90;;;;;;;25.22;73.58;98774.69;5005959;27;102730;-76
2023/06/21 06:57:32;;;;;;;9.15;8.25;;;;;;;25.45;72.27;98768.13;5006103;27;104042;-76
2023/06/21 07:00:11;;;;;;;10.18;9.20;;;;;;;25.85;70.69;98759.91;5015248;27;103247;-76
2023/06/21 07:02:39;;;;;;;9.57;8.48;;;;;;;26.26;70.33;98759.75;5002784;28;103327;-77
2023/06/21 07:05:08;;;;;;;9.50;8.50;;;;;;;26.02;71.31;98762.22;5005716;28;102897;-77
2023/06/21 07:07:37;;;;;;;10.38;9.30;;;;;;;25.73;71.15;98766.97;5027484;27;103722;-76
2023/06/21 07:10:06;;;;;;;9.27;8.38;;;;;;;26.19;68.90;98755.38;5018063;27;104420;-76
2023/06/21 07:12:34;;;;;;;8.77;7.97;;;;;;;26.46;67.07;98771.41;5005032;28;104204;-76
2023/06/21 07:15:02;;;;;;;10.50;9.33;;;;;;;25.88;70.42;98770.31;5020140;27;102940;-77
2023/06/21 07:17:29;;;;;;;8.80;8.00;;;;;;;26.50;70.67;98763.66;5017957;27;102680;-77
2023/06/21 07:19:57;;;;;;;7.77;7.07;;;;;;;26.93;69.75;98762.16;5008588;27;104154;-76
2023/06/21 07:22:25;;;;;;;10.23;9.30;;;;;;;26.75;68.44;98751.09;4994719;27;103262;-77
2023/06/21 07:24:54;;;;;;;8.85;7.93;;;;;;;26.90;68.13;98743.59;5023087;27;102852;-76
2023/06/21 07:27:22;;;;;;;9.77;8.40;;;;;;;26.10;66.96;98732.22;4998030;27;104016;-77
2023/06/21 07:29:50;;;;;;;9.30;8.40;;;;;;;25.99;67.71;98751.81;4998338;28;103809;-76
2023/06/21 07:32:18;;;;;;;8.75;7.03;;;;;;;26.59;67.58;98750.72;5024080;27;103360;-76
2023/06/21 07:34:46;;;;;;;7.00;6.30;;;;;;;27.13;63.72;98753.09;5016813;27;102769;-76
2023/06/21 07:37:14;;;;;;;6.57;5.88;;;;;;;26.97;64.66;98749.84;5002918;27;104135;-76
2023/06/21 07:39:42;;;;;;;6.23;5.63;;;;;;;27.24;66.27;98760.56;5022721;27;103776;-76
2023/06/21 07:42:22;;;;;;;7.55;6.20;;;;;;;26.77;65.60;98759.88;5017584;27;103238;-77
2023/06/21 07:44:52;;;;;;;5.47;4.90;;;;;;;27.21;63.39;98761.00;4993234;27;102797;-76
2023/06/21 07:47:20;;;;;;;5.90;5.07;;;;;;;27.23;63.11;98758.91;5022094;27;102885;-76
2023/06/21 07:49:54;;;;;;;4.65;4.25;;;;;;;27.32;62.77;98757.59;5016619;27;103911;-76
2023/06/21 07:52:28;;;;;;;6.30;5.57;;;;;;;26.84;64.96;98754.44;5003146;27;104155;-76
2023/06/21 07:54:55;;;;;;;6.53;5.70;;;;;;;27.00;64.33;98749.38;5002611;27;102920;-80
2023/06/21 07:57:24;;;;;;;5.75;5.25;;;;;;;27.22;62.46;98751.81;5002556;27;102644;-79
2023/06/21 07:59:52;;;;;;;5.03;4.40;;;;;;;27.77;63.35;98745.69;5027197;27;103913;-80
2023/06/21 08:02:20;;;;;;;4.88;4.35;;;;;;;28.09;60.42;98747.38;5027747;27;103919;-80
2023/06/21 08:04:49;;;;;;;4.78;4.30;;;;;;;28.07;60.26;98752.16;5038769;27;102643;-79
2023/06/21 08:07:17;;;;;;;5.68;4.70;;;;;;;28.01;59.43;98758.47;5002256;27;104375;-80
2023/06/21 08:09:44;;;;;;;5.78;4.50;;;;;;;27.50;61.15;98761.31;5033113;27;103295;-80
2023/06/21 08:12:13;;;;;;;4.10;3.50;;;;;;;27.87;59.35;98756.91;5011356;27;103562;-80
2023/06/21 08:14:42;;;;;;;4.88;3.90;;;;;;;27.31;59.77;98777.66;5016902;27;102765;-79
2023/06/21 08:17:10;;;;;;;5.10;4.10;;;;;;;27.52;61.31;98783.63;5030579;27;102678;-79
2023/06/21 08:19:38;;;;;;;5.60;4.25;;;;;;;27.77;60.50;98788.28;5019015;27;105047;-79
2023/06/21 08:22:05;;;;;;;4.93;4.18;;;;;;;27.49;59.39;98785.94;5009390;28;103178;-80
2023/06/21 08:24:34;;;;;;;5.35;4.20;;;;;;;27.17;60.07;98792.31;5010524;27;102838;-80
2023/06/21 08:27:02;;;;;;;4.43;3.90;;;;;;;27.56;60.11;98795.72;5002089;28;104049;-80
2023/06/21 08:29:29;;;;;;;3.70;3.33;;;;;;;27.89;59.19;98800.09;5030956;27;103807;-80
2023/06/21 08:31:59;;;;;;;5.10;4.07;;;;;;;27.65;58.12;98798.97;5009255;27;104158;-79
2023/06/21 08:34:27;;;;;;;5.22;3.25;;;;;;;27.49;59.68;98807.63;5007172;28;102725;-80
2023/06/21 08:36:55;;;;;;;4.32;3.33;;;;;;;26.96;60.30;98820.53;5016833;27;102751;-79
2023/06/21 08:39:22;;;;;;;5.65;3.67;;;;;;;27.09;60.45;98814.25;5024125;27;103519;-79
2023/06/21 08:41:50;;;;;;;4.33;3.13;;;;;;;26.65;61.03;98828.47;5013754;27;104157;-79
2023/06/21 08:44:18;;;;;;;4.75;3.20;;;;;;;26.73;61.03;98825.53;5012882;28;102674;-79
2023/06/21 08:46:49;;;;;;;6.17;3.57;;;;;;;26.11;61.99;98828.63;5019613;27;103198;-79
2023/06/21 08:49:21;;;;;;;4.47;3.27;;;;;;;26.03;62.43;98824.25;5003482;27;103347;-78
2023/06/21 08:51:51;;;;;;;5.27;3.80;;;;;;;26.41;60.64;98827.25;5018854;27;103201;-79
2023/06/21 08:54:25;;;;;;;3.33;3.03;;;;;;;26.59;60.78;98832.84;5024348;27;102681;-79
2023/06/21 08:56:56;;;;;;;3.90;3.30;;;;;;;26.76;59.96;98838.66;5029178;27;103927;-79
2023/06/21 08:59:29;;;;;;;3.97;3.58;;;;;;;26.55;61.62;98847.88;5031752;27;103634;-79
2023/06/21 09:02:05;;;;;;;3.55;3.25;;;;;;;26.53;62.19;98846.41;5004020;27;103301;-79
2023/06/21 09:04:44;;;;;;;5.45;4.00;;;;;;;26.58;61.58;98847.47;5030927;27;102903;-79
2023/06/21 09:07:13;;;;;;;3.95;3.30;;;;;;;26.54;62.14;98850.78;5022000;27;104094;-79
2023/06/21 09:09:43;;;;;;;3.72;3.42;;;;;;;26.43;63.09;98849.53;5025427;27;104305;-79
2023/06/21 09:12:15;;;;;;;5.80;3.80;;;;;;;26.39;63.38;98850.97;5023628;27;103175;-79
2023/06/21 09:14:44;;;;;;;4.53;4.07;;;;;;;26.48;63.71;98837.03;5024340;27;102772;-79
2023/06/21 09:17:12;;;;;;;6.05;4.57;;;;;;;26.09;65.93;98836.97;5032706;27;103982;-78
2023/06/21 09:19:42;;;;;;;4.17;3.77;;;;;;;26.11;68.83;98834.03;5027658;27;102993;-79
2023/06/21 09:22:13;;;;;;;5.78;4.20;;;;;;;25.29;72.95;98840.44;5008011;27;104468;-80
2023/06/21 09:24:44;;;;;;;6.93;4.68;;;;;;;24.41;75.05;98829.47;5034032;27;102974;-80
2023/06/21 09:27:12;;;;;;;5.15;4.70;;;;;;;23.96;76.48;98808.25;5019766;27;102963;-78
2023/06/21 09:29:40;;;;;;;6.28;4.50;;;;;;;24.00;80.61;98793.38;5020839;27;103266;-79
2023/06/21 09:32:08;;;;;;;4.63;4.10;;;;;;;24.69;76.59;98807.84;5017868;27;103222;-80
2023/06/21 09:34:37;;;;;;;6.20;4.75;;;;;;;24.27;78.53;98807.94;5018130;27;103005;-79
2023/06/21 09:37:06;;;;;;;5.10;4.03;;;;;;;24.81;77.23;98819.81;5020127;27;102577;-80
2023/06/21 09:39:34;;;;;;;4.18;3.58;;;;;;;25.28;76.04;98840.66;5024243;27;104496;-80
2023/06/21 09:42:02;;;;;;;8.52;5.85;;;;;;;24.23;83.41;98829.09;5015402;27;103289;-79
2023/06/21 09:44:35;;;;;;;6.40;4.93;;;;;;;23.92;82.72;98820.44;5013551;27;102919;-79
2023/06/21 09:47:04;;;;;;;5.78;4.90;;;;;;;23.91;84.50;98805.31;4996556;27;102877;-79
2023/06/21 09:49:35;;;;;;;6.50;5.65;;;;;;;23.39;90.39;98778.59;5019273;27;103249;-79
2023/06/21 09:52:03;;;;;;;6.95;5.70;;;;;;;22.78;93.53;98756.47;5003445;28;104062;-80
2023/06/21 09:54:44;;;;;;;8.57;5.35;;;;;;;23.16;93.11;98767.13;5012159;27;102731;-79
2023/06/21 09:57:16;;;;;;;6.05;5.07;;;;;;;23.56;87.64;98788.97;5003024;28;102708;-81
2023/06/21 09:59:49;;;;;;;5.03;3.60;;;;;;;24.27;84.51;98791.75;5024756;27;104079;-79
2023/06/21 10:02:17;;;;;;;6.13;4.63;;;;;;;24.02;85.40;98792.16;5011120;27;103257;-81
2023/06/21 10:04:45;;;;;;;4.35;3.65;;;;;;;24.35;83.01;98802.41;5023582;27;102626;-80
2023/06/21 10:07:14;;;;;;;3.92;3.45;;;;;;;24.52;82.19;98814.59;4996472;27;104716;-80
2023/06/21 10:09:43;;;;;;;4.23;3.50;;;;;;;24.57;82.53;98831.88;5001961;27;105623;-76
2023/06/21 10:12:12;;;;;;;8.10;5.72;;;;;;;24.22;86.45;98851.72;4997462;27;103200;-81
2023/06/21 10:14:40;;;;;;;6.78;5.03;;;;;;;24.25;87.65;98881.03;5025600;27;102651;-81
2023/06/21 10:17:12;;;;;;;4.53;4.10;;;;;;;24.42;86.60;98884.31;5000154;27;103841;-84
2023/06/21 10:19:42;;;;;;;3.43;3.10;;;;;;;24.70;84.53;98875.16;5011115;27;103435;-82
2023/06/21 10:22:17;;;;;;;8.52;5.35;;;;;;;24.44;83.83;98877.69;5006819;27;103629;-83
2023/06/21 10:24:50;;;;;;;4.20;3.73;;;;;;;24.56;84.52;98869.88;5012962;27;102845;-82
2023/06/21 10:27:20;;;;;;;4.38;3.50;;;;;;;24.72;83.01;98881.22;5002945;27;102699;-82
2023/06/21 10:29:56;;;;;;;5.40;3.92;;;;;;;24.54;83.81;98888.97;5003096;27;103479;-82
2023/06/21 10:32:25;;;;;;;8.70;5.50;;;;;;;24.46;85.48;98889.09;4998006;27;103194;-82
2023/06/21 10:34:58;;;;;;;5.20;4.70;;;;;;;24.36;86.24;98895.88;5002632;27;103894;-81
2023/06/21 10:37:33;;;;;;;7.93;5.47;;;;;;;24.21;85.92;98898.63;5023316;27;103518;-82
2023/06/21 10:40:07;;;;;;;4.30;3.67;;;;;;;24.69;83.92;98891.59;5023275;27;103260;-80
2023/06/21 10:42:55;;;;;;;5.35;3.85;;;;;;;25.07;80.82;98908.31;5016280;27;103436;-83
2023/06/21 10:45:28;;;;;;;6.45;4.90;;;;;;;25.21;80.72;98901.94;5007298;27;102581;-82
2023/06/21 10:47:57;;;;;;;5.05;4.20;;;;;;;25.22;81.85;98903.63;5002958;28;102545;-83
2023/06/21 10:50:25;;;;;;;4.53;3.47;;;;;;;25.35;80.94;98901.81;5000773;27;104459;-83
2023/06/21 10:52:55;;;;;;;5.82;4.60;;;;;;;25.46;77.88;98905.81;5016139;27;103239;-85
2023/06/21 10:55:33;;;;;;;4.78;3.80;;;;;;;25.70;77.93;98908.06;5001086;27;102861;-84
2023/06/21 10:58:03;;;;;;;7.22;4.85;;;;;;;25.48;80.02;98913.78;5007049;27;102707;-83
2023/06/21 11:00:31;;;;;;;5.30;4.33;;;;;;;25.65;77.79;98915.13;5014629;27;103213;-86
2023/06/21 11:02:59;;;;;;;6.40;4.03;;;;;;;26.06;77.11;98912.34;4991894;28;104360;-86
2023/06/21 11:05:33;;;;;;;4.43;4.00;;;;;;;26.17;77.91;98903.66;4998872;27;102917;-87
2023/06/21 11:08:05;;;;;;;5.47;4.67;;;;;;;26.45;75.65;98901.59;4998433;27;103349;-80
2023/06/21 11:10:42;;;;;;;5.23;4.70;;;;;;;26.66;75.11;98909.56;4995222;27;104045;-81
2023/06/21 11:13:11;;;;;;;7.93;5.35;;;;;;;26.68;73.37;98910.16;4995271;28;102980;-90
2023/06/21 11:15:43;;;;;;;5.53;4.75;;;;;;;26.84;73.54;98922.50;5001476;27;102680;-78
2023/06/21 11:18:18;;;;;;;5.37;4.77;;;;;;;26.88;72.37;98921.88;5014186;27;102783;-79
2023/06/21 11:20:48;;;;;;;8.27;6.00;;;;;;;26.83;73.32;98916.25;5019682;27;103721;-76
2023/06/21 11:23:17;;;;;;;7.22;5.97;;;;;;;26.80;72.04;98918.53;5018439;27;103213;-81
2023/06/21 11:25:58;;;;;;;6.82;4.82;;;;;;;27.18;71.84;98918.69;5019618;27;102543;-82
2023/06/21 11:28:32;;;;;;;7.70;5.80;;;;;;;26.59;69.80;98924.97;4999874;27;103643;-81
2023/06/21 11:31:08;;;;;;;5.68;4.93;;;;;;;26.72;72.19;98927.69;5006646;27;103329;-78
2023/06/21 11:33:51;;;;;;;6.25;5.65;;;;;;;26.08;78.07;98921.09;4994060;27;103412;-76